Quinsam — VY6800 — position and weather

sailwx.info

Track history (hours):
 
Tides and Currents Weather Stations Pressure Air Temp Water Temp Dewpoint Dewpoint Depression Visibility Wind Speed Wind Dir Waves Ship Positions

Quinsam

Last reported at 2016-Sep-29 21:34 UTC. Time now 2016-Sep-29 22:08 UTC.
Position N 49°10' W 123°56'.

Length 88 m; draft 1.5 m.

Type: Ship. MMSI: 316001266.

Date/timePositionNaut miles runAvg speedWind from/ knotsBaromVisibWave heightAir tempDewpointWater temp
2016-Sep-29 21:34N 49°10' W 123°56'0 0.0
2016-Sep-29 20:33N 49°10' W 123°56'3 2.7
2016-Sep-29 19:31N 49°11' W 123°52'3 1.0
2016-Sep-29 16:34N 49°10' W 123°56'3 2.6
2016-Sep-29 15:32N 49°11' W 123°52'0 0.3
2016-Sep-29 14:33N 49°11' W 123°52'2 2.3
2016-Sep-29 13:33N 49°10' W 123°55'0 0.0
2016-Sep-29 00:33N 49°10' W 123°55'0 0.1
2016-Sep-28 21:33N 49°10' W 123°56'3 1.4
2016-Sep-28 19:29N 49°11' W 123°52'2 0.7
2016-Sep-28 16:10N 49°10' W 123°55'1 1.7
2016-Sep-28 15:25N 49°10' W 123°53'0 0.0
2016-Sep-28 02:32N 49°11' W 123°53'1 0.1
2016-Sep-27 14:19N 49°11' W 123°52'2 3.2
2016-Sep-27 13:34N 49°10' W 123°55'2 0.2
2016-Sep-27 00:33N 49°11' W 123°52'2 0.5
2016-Sep-26 20:33N 49°10' W 123°55'2 2.1
2016-Sep-26 19:33N 49°11' W 123°52'0 0.0
2016-Sep-26 02:32N 49°11' W 123°52'0 0.2
2016-Sep-26 01:32N 49°11' W 123°52'0 0.0
2016-Sep-26 00:32N 49°11' W 123°52'0 0.0
2016-Sep-25 21:05N 49°11' W 123°52'3 0.8
2016-Sep-25 17:33N 49°10' W 123°56'1 0.8
2016-Sep-25 16:33N 49°10' W 123°55'2 1.7
2016-Sep-25 15:33N 49°11' W 123°52'3 2.5
2016-Sep-25 14:33N 49°10' W 123°56'3 1.4
2016-Sep-25 12:26N 49°11' W 123°52'0 0.0
2016-Sep-25 10:14N 49°11' W 123°52'0 0.0
2016-Sep-25 09:14N 49°11' W 123°52'0 0.0
2016-Sep-25 07:14N 49°11' W 123°52'1 0.2
2016-Sep-25 04:33N 49°11' W 123°52'1 0.1
2016-Sep-25 00:33N 49°11' W 123°52'3 1.5
2016-Sep-24 22:34N 49°10' W 123°56'3 1.0
2016-Sep-24 19:31N 49°11' W 123°52'2 2.0
2016-Sep-24 18:34N 49°10' W 123°54'1 1.0
2016-Sep-24 17:33N 49°10' W 123°56'1 0.9
2016-Sep-24 16:33N 49°10' W 123°54'2 0.9
2016-Sep-24 14:26N 49°11' W 123°52'0 0.0
2016-Sep-24 12:28N 49°11' W 123°52'1 0.1
2016-Sep-24 03:33N 49°10' W 123°53'0 0.3
2016-Sep-24 02:33N 49°11' W 123°53'1 0.9
2016-Sep-24 01:33N 49°11' W 123°52'0 0.0
2016-Sep-24 00:32N 49°11' W 123°52'0 0.0
2016-Sep-23 19:31N 49°11' W 123°52'3 1.5
2016-Sep-23 17:33N 49°10' W 123°56'1 1.2
2016-Sep-23 16:34N 49°10' W 123°54'2 1.7
2016-Sep-23 15:33N 49°11' W 123°52'2 1.1
2016-Sep-23 13:33N 49°10' W 123°55'2 0.5
2016-Sep-23 09:29N 49°11' W 123°52'0 0.0
2016-Sep-23 06:18N 49°11' W 123°52'0 0.0
2016-Sep-23 04:33N 49°11' W 123°52'1 0.9
2016-Sep-23 03:33N 49°10' W 123°53'1 0.7
2016-Sep-23 02:33N 49°11' W 123°52'0 0.3
2016-Sep-23 01:34N 49°11' W 123°52'0 0.0
2016-Sep-23 00:30N 49°11' W 123°52'2 1.9
2016-Sep-22 23:33N 49°10' W 123°54'1 0.5
2016-Sep-22 20:33N 49°11' W 123°52'0 0.0
2016-Sep-22 04:33N 49°11' W 123°52'0 0.5
2016-Sep-22 03:33N 49°10' W 123°53'1 0.3
2016-Sep-22 00:32N 49°11' W 123°52'1 1.1
2016-Sep-21 23:33N 49°10' W 123°53'2 1.8
2016-Sep-21 22:33N 49°10' W 123°56'3 0.9
2016-Sep-21 19:28N 49°11' W 123°52'2 0.8
2016-Sep-21 16:33N 49°10' W 123°55'2 0.2
2016-Sep-21 05:32N 49°11' W 123°52'1 0.4
2016-Sep-21 03:33N 49°10' W 123°53'1 1.1
2016-Sep-21 02:34N 49°11' W 123°52'3 0.3
2016-Sep-20 17:34N 49°10' W 123°56'3 1.0
2016-Sep-20 14:33N 49°11' W 123°52'2 2.0
2016-Sep-20 13:34N 49°10' W 123°55'2 0.3
2016-Sep-20 06:20N 49°11' W 123°52'0 0.1
2016-Sep-20 02:33N 49°11' W 123°52'1 0.5
2016-Sep-19 23:33N 49°10' W 123°54'  
Track history (hours):
 
Tides and Currents Weather Stations Pressure Air Temp Water Temp Dewpoint Dewpoint Depression Visibility Wind Speed Wind Dir Waves Ship Positions

Quinsam

Last reported at 2016-Sep-29 21:34 UTC. Time now 2016-Sep-29 22:08 UTC.
Position N 49°10' W 123°56'.

Length 88 m; draft 1.5 m.

Type: Ship. MMSI: 316001266.

Date/timePositionNaut miles runAvg speedWind from/ knotsBaromVisibWave heightAir tempDewpointWater temp
2016-Sep-29 21:34N 49°10' W 123°56'0 0.0
2016-Sep-29 20:33N 49°10' W 123°56'3 2.7
2016-Sep-29 19:31N 49°11' W 123°52'3 1.0
2016-Sep-29 16:34N 49°10' W 123°56'3 2.6
2016-Sep-29 15:32N 49°11' W 123°52'0 0.3
2016-Sep-29 14:33N 49°11' W 123°52'2 2.3
2016-Sep-29 13:33N 49°10' W 123°55'0 0.0
2016-Sep-29 00:33N 49°10' W 123°55'0 0.1
2016-Sep-28 21:33N 49°10' W 123°56'3 1.4
2016-Sep-28 19:29N 49°11' W 123°52'2 0.7
2016-Sep-28 16:10N 49°10' W 123°55'1 1.7
2016-Sep-28 15:25N 49°10' W 123°53'0 0.0
2016-Sep-28 02:32N 49°11' W 123°53'1 0.1
2016-Sep-27 14:19N 49°11' W 123°52'2 3.2
2016-Sep-27 13:34N 49°10' W 123°55'2 0.2
2016-Sep-27 00:33N 49°11' W 123°52'2 0.5
2016-Sep-26 20:33N 49°10' W 123°55'2 2.1
2016-Sep-26 19:33N 49°11' W 123°52'0 0.0
2016-Sep-26 02:32N 49°11' W 123°52'0 0.2
2016-Sep-26 01:32N 49°11' W 123°52'0 0.0
2016-Sep-26 00:32N 49°11' W 123°52'0 0.0
2016-Sep-25 21:05N 49°11' W 123°52'3 0.8
2016-Sep-25 17:33N 49°10' W 123°56'1 0.8
2016-Sep-25 16:33N 49°10' W 123°55'2 1.7
2016-Sep-25 15:33N 49°11' W 123°52'3 2.5
2016-Sep-25 14:33N 49°10' W 123°56'3 1.4
2016-Sep-25 12:26N 49°11' W 123°52'0 0.0
2016-Sep-25 10:14N 49°11' W 123°52'0 0.0
2016-Sep-25 09:14N 49°11' W 123°52'0 0.0
2016-Sep-25 07:14N 49°11' W 123°52'1 0.2
2016-Sep-25 04:33N 49°11' W 123°52'1 0.1
2016-Sep-25 00:33N 49°11' W 123°52'3 1.5
2016-Sep-24 22:34N 49°10' W 123°56'3 1.0
2016-Sep-24 19:31N 49°11' W 123°52'2 2.0
2016-Sep-24 18:34N 49°10' W 123°54'1 1.0
2016-Sep-24 17:33N 49°10' W 123°56'1 0.9
2016-Sep-24 16:33N 49°10' W 123°54'2 0.9
2016-Sep-24 14:26N 49°11' W 123°52'0 0.0
2016-Sep-24 12:28N 49°11' W 123°52'1 0.1
2016-Sep-24 03:33N 49°10' W 123°53'0 0.3
2016-Sep-24 02:33N 49°11' W 123°53'1 0.9
2016-Sep-24 01:33N 49°11' W 123°52'0 0.0
2016-Sep-24 00:32N 49°11' W 123°52'0 0.0
2016-Sep-23 19:31N 49°11' W 123°52'3 1.5
2016-Sep-23 17:33N 49°10' W 123°56'1 1.2
2016-Sep-23 16:34N 49°10' W 123°54'2 1.7
2016-Sep-23 15:33N 49°11' W 123°52'2 1.1
2016-Sep-23 13:33N 49°10' W 123°55'2 0.5
2016-Sep-23 09:29N 49°11' W 123°52'0 0.0
2016-Sep-23 06:18N 49°11' W 123°52'0 0.0
2016-Sep-23 04:33N 49°11' W 123°52'1 0.9
2016-Sep-23 03:33N 49°10' W 123°53'1 0.7
2016-Sep-23 02:33N 49°11' W 123°52'0 0.3
2016-Sep-23 01:34N 49°11' W 123°52'0 0.0
2016-Sep-23 00:30N 49°11' W 123°52'2 1.9
2016-Sep-22 23:33N 49°10' W 123°54'1 0.5
2016-Sep-22 20:33N 49°11' W 123°52'0 0.0
2016-Sep-22 04:33N 49°11' W 123°52'0 0.5
2016-Sep-22 03:33N 49°10' W 123°53'1 0.3
2016-Sep-22 00:32N 49°11' W 123°52'1 1.1
2016-Sep-21 23:33N 49°10' W 123°53'2 1.8
2016-Sep-21 22:33N 49°10' W 123°56'3 0.9
2016-Sep-21 19:28N 49°11' W 123°52'2 0.8
2016-Sep-21 16:33N 49°10' W 123°55'2 0.2
2016-Sep-21 05:32N 49°11' W 123°52'1 0.4
2016-Sep-21 03:33N 49°10' W 123°53'1 1.1
2016-Sep-21 02:34N 49°11' W 123°52'3 0.3
2016-Sep-20 17:34N 49°10' W 123°56'3 1.0
2016-Sep-20 14:33N 49°11' W 123°52'2 2.0
2016-Sep-20 13:34N 49°10' W 123°55'2 0.3
2016-Sep-20 06:20N 49°11' W 123°52'0 0.1
2016-Sep-20 02:33N 49°11' W 123°52'1 0.5
2016-Sep-19 23:33N 49°10' W 123°54'  

Dump ship's entire track history